createdAt,value
2022-09-15T00:02:01.663Z,97840.16
2022-09-15T00:04:03.655Z,97840.97
2022-09-15T00:06:05.776Z,97841.13
2022-09-15T00:08:07.477Z,97838.44
2022-09-15T00:10:09.792Z,97837.63
2022-09-15T00:12:11.448Z,97835.63
2022-09-15T00:14:13.178Z,97835.19
2022-09-15T00:16:15.548Z,97833.34
2022-09-15T00:18:17.403Z,97833.34
2022-09-15T00:20:20.424Z,97831.69
2022-09-15T00:22:22.072Z,97829.00
2022-09-15T00:24:23.810Z,97828.31
2022-09-15T00:26:26.584Z,97827.47
2022-09-15T00:28:28.296Z,97823.25
2022-09-15T00:30:30.090Z,97823.25
2022-09-15T00:32:31.933Z,97826.56
2022-09-15T00:34:33.717Z,97828.59
2022-09-15T00:36:35.397Z,97826.91
2022-09-15T00:38:37.389Z,97821.53
2022-09-15T00:40:49.717Z,97830.59
2022-09-15T00:42:51.425Z,97820.84
2022-09-15T00:45:01.028Z,97827.91
2022-09-15T00:47:18.669Z,97824.53
2022-09-15T00:49:24.183Z,97825.53
2022-09-15T00:51:46.792Z,97820.16
2022-09-15T00:53:48.636Z,97825.22
2022-09-15T00:55:50.706Z,97820.72
2022-09-15T00:58:04.330Z,97812.81
2022-09-15T01:00:09.360Z,97816.19
2022-09-15T01:02:18.408Z,97822.94
2022-09-15T01:04:20.161Z,97810.50
2022-09-15T01:06:34.491Z,97814.91
2022-09-15T01:09:03.182Z,97815.88
2022-09-15T01:11:05.028Z,97815.03
2022-09-15T01:13:11.400Z,97821.22
2022-09-15T01:15:13.147Z,97815.59
2022-09-15T01:17:20.038Z,97812.09
2022-09-15T01:19:39.960Z,97813.75
2022-09-15T01:21:44.231Z,97819.13
2022-09-15T01:24:25.266Z,97806.88
2022-09-15T01:26:41.994Z,97814.78
2022-09-15T01:29:04.732Z,97804.91
2022-09-15T01:31:32.407Z,97815.59
2022-09-15T01:34:07.644Z,97810.25
2022-09-15T01:36:19.529Z,97811.09
2022-09-15T01:38:38.821Z,97807.56
2022-09-15T01:40:48.342Z,97808.72
2022-09-15T01:42:50.266Z,97808.56
2022-09-15T01:45:19.315Z,97808.56
2022-09-15T01:47:21.086Z,97807.56
2022-09-15T01:49:27.348Z,97811.22
2022-09-15T01:51:29.019Z,97808.00
2022-09-15T01:53:30.744Z,97812.25
2022-09-15T01:55:52.498Z,97813.06
2022-09-15T01:57:54.197Z,97799.53
2022-09-15T01:59:56.279Z,97800.38
2022-09-15T02:02:16.227Z,97797.53
2022-09-15T02:04:23.789Z,97806.88
2022-09-15T02:06:38.920Z,97807.72
2022-09-15T02:08:59.656Z,97808.56
2022-09-15T02:11:14.391Z,97812.75
2022-09-15T02:13:22.879Z,97807.41
2022-09-15T02:15:33.766Z,97804.91
2022-09-15T02:17:37.606Z,97807.25
2022-09-15T02:19:39.492Z,97803.56
2022-09-15T02:22:10.406Z,97797.53
2022-09-15T02:24:15.227Z,97794.19
2022-09-15T02:26:19.576Z,97804.91
2022-09-15T02:28:21.553Z,97803.06
2022-09-15T02:30:23.238Z,97798.72
2022-09-15T02:32:25.335Z,97802.38
2022-09-15T02:34:31.914Z,97795.84
2022-09-15T02:36:33.597Z,97799.81
2022-09-15T02:38:37.346Z,97801.53
2022-09-15T02:40:43.134Z,97804.22
2022-09-15T02:42:58.413Z,97793.34
2022-09-15T02:45:00.623Z,97794.19
2022-09-15T02:47:02.427Z,97793.34
2022-09-15T02:49:04.157Z,97801.53
2022-09-15T02:51:06.014Z,97799.81
2022-09-15T02:53:07.782Z,97807.19
2022-09-15T02:55:09.864Z,97802.66
2022-09-15T02:57:11.523Z,97807.19
2022-09-15T02:59:13.760Z,97803.38
2022-09-15T03:01:15.920Z,97803.19
2022-09-15T03:03:17.717Z,97805.72
2022-09-15T03:05:26.623Z,97804.91
2022-09-15T03:07:28.273Z,97797.53
2022-09-15T03:09:29.989Z,97804.06
2022-09-15T03:11:31.749Z,97806.88
2022-09-15T03:13:33.455Z,97805.16
2022-09-15T03:15:35.165Z,97807.84
2022-09-15T03:17:37.851Z,97803.63
2022-09-15T03:19:39.605Z,97805.16
2022-09-15T03:21:41.315Z,97801.13
2022-09-15T03:23:43.071Z,97805.81
2022-09-15T03:25:45.838Z,97796.75
2022-09-15T03:27:47.539Z,97801.13
2022-09-15T03:29:49.673Z,97802.13
2022-09-15T03:31:51.470Z,97798.94
2022-09-15T03:33:53.286Z,97800.78
2022-09-15T03:35:55.005Z,97803.44
2022-09-15T03:37:56.732Z,97800.44
2022-09-15T03:39:58.560Z,97799.63
2022-09-15T03:42:00.366Z,97803.63
2022-09-15T03:44:02.315Z,97805.81
2022-09-15T03:46:05.079Z,97801.75
2022-09-15T03:48:06.922Z,97800.44
2022-09-15T03:50:09.025Z,97804.44
2022-09-15T03:52:10.724Z,97803.28
2022-09-15T03:54:12.463Z,97803.44
2022-09-15T03:56:24.664Z,97800.13
2022-09-15T03:58:30.514Z,97801.81
2022-09-15T04:00:32.564Z,97797.31
2022-09-15T04:02:34.343Z,97795.78
2022-09-15T04:04:35.966Z,97797.09
2022-09-15T04:06:37.751Z,97792.88
2022-09-15T04:08:39.627Z,97801.06
2022-09-15T04:10:41.386Z,97801.06
2022-09-15T04:12:43.199Z,97804.78
2022-09-15T04:14:44.968Z,97808.84
2022-09-15T04:16:46.735Z,97794.19
2022-09-15T04:18:48.692Z,97801.53
2022-09-15T04:20:50.359Z,97806.78
2022-09-15T04:22:52.040Z,97809.31
2022-09-15T04:25:00.206Z,97807.31
2022-09-15T04:27:01.993Z,97798.38
2022-09-15T04:29:05.071Z,97802.03
2022-09-15T04:31:11.431Z,97803.63
2022-09-15T04:33:13.246Z,97803.59
2022-09-15T04:35:15.071Z,97802.38
2022-09-15T04:37:16.758Z,97802.00
2022-09-15T04:39:18.416Z,97798.97
2022-09-15T04:41:20.209Z,97802.94
2022-09-15T04:43:22.468Z,97795.59
2022-09-15T04:45:24.136Z,97805.59
2022-09-15T04:47:25.767Z,97803.25
2022-09-15T04:49:27.441Z,97801.59
2022-09-15T04:51:29.255Z,97806.06
2022-09-15T04:53:30.985Z,97797.38
2022-09-15T04:55:33.697Z,97805.25
2022-09-15T04:57:35.346Z,97801.03
2022-09-15T04:59:37.027Z,97802.19
2022-09-15T05:01:38.749Z,97805.19
2022-09-15T05:03:40.626Z,97797.16
2022-09-15T05:05:42.324Z,97800.53
2022-09-15T05:07:44.051Z,97799.84
2022-09-15T05:09:45.774Z,97793.34
2022-09-15T05:11:47.478Z,97793.47
2022-09-15T05:13:49.171Z,97793.47
2022-09-15T05:15:50.916Z,97804.19
2022-09-15T05:17:52.675Z,97796.28
2022-09-15T05:19:54.344Z,97802.81
2022-09-15T05:21:55.992Z,97802.81
2022-09-15T05:23:57.672Z,97803.81
2022-09-15T05:26:00.744Z,97798.31
2022-09-15T05:28:02.731Z,97796.63
2022-09-15T05:30:34.860Z,97801.13
2022-09-15T05:32:26.832Z,97797.63
2022-09-15T05:34:28.533Z,97799.75
2022-09-15T05:36:30.369Z,97797.78
2022-09-15T05:38:32.189Z,97798.31
2022-09-15T05:40:33.905Z,97799.47
2022-09-15T05:42:35.715Z,97798.47
2022-09-15T05:44:37.396Z,97796.09
2022-09-15T05:46:39.132Z,97795.41
2022-09-15T05:48:40.906Z,97798.91
2022-09-15T05:50:48.867Z,97790.75
2022-09-15T05:52:53.624Z,97801.44
2022-09-15T05:54:59.012Z,97797.25
2022-09-15T05:57:01.041Z,97803.13
2022-09-15T05:59:02.742Z,97801.44
2022-09-15T06:01:24.157Z,97797.25
2022-09-15T06:03:30.625Z,97789.06
2022-09-15T06:05:32.693Z,97800.75
2022-09-15T06:07:34.370Z,97800.59
2022-09-15T06:09:36.100Z,97792.75
2022-09-15T06:11:37.725Z,97800.59
2022-09-15T06:13:39.628Z,97801.44
2022-09-15T06:15:41.509Z,97799.75
2022-09-15T06:17:43.205Z,97806.13
2022-09-15T06:19:44.914Z,97801.75
2022-09-15T06:21:46.617Z,97807.25
2022-09-15T06:23:55.139Z,97807.09
2022-09-15T06:25:56.935Z,97805.94
2022-09-15T06:27:58.629Z,97811.59
2022-09-15T06:30:00.302Z,97816.13
2022-09-15T06:32:02.374Z,97812.28
2022-09-15T06:34:04.178Z,97812.44
2022-09-15T06:36:06.179Z,97809.75
2022-09-15T06:38:08.067Z,97816.13
2022-09-15T06:40:10.291Z,97821.47
2022-09-15T06:42:13.830Z,97808.25
2022-09-15T06:44:15.773Z,97818.09
2022-09-15T06:46:19.616Z,97820.47
2022-09-15T06:48:24.708Z,97822.31
2022-09-15T06:50:26.897Z,97826.00
2022-09-15T06:52:28.565Z,97821.78
2022-09-15T06:54:30.235Z,97825.13
2022-09-15T06:56:35.871Z,97827.81
2022-09-15T06:58:40.679Z,97823.47
2022-09-15T07:00:42.713Z,97833.84
2022-09-15T07:02:44.507Z,97827.53
2022-09-15T07:04:46.277Z,97830.47
2022-09-15T07:06:48.192Z,97835.00
2022-09-15T07:08:50.144Z,97829.66
2022-09-15T07:10:51.845Z,97828.66
2022-09-15T07:12:53.593Z,97836.53
2022-09-15T07:14:55.323Z,97828.50
2022-09-15T07:16:57.022Z,97841.19
2022-09-15T07:18:58.830Z,97838.38
2022-09-15T07:21:02.516Z,97840.91
2022-09-15T07:23:04.200Z,97841.19
2022-09-15T07:25:06.429Z,97838.38
2022-09-15T07:27:08.163Z,97837.53
2022-09-15T07:29:09.963Z,97834.16
2022-09-15T07:31:13.599Z,97844.72
2022-09-15T07:33:15.317Z,97834.16
2022-09-15T07:35:17.073Z,97843.19
2022-09-15T07:37:20.052Z,97831.34
2022-09-15T07:39:21.799Z,97837.53
2022-09-15T07:41:25.191Z,97836.69
2022-09-15T07:43:26.921Z,97838.69
2022-09-15T07:45:28.674Z,97835.00
2022-09-15T07:47:30.476Z,97839.50
2022-09-15T07:49:32.172Z,97839.50
2022-09-15T07:51:34.026Z,97842.19
2022-09-15T07:53:35.682Z,97842.88
2022-09-15T07:55:37.383Z,97841.88
2022-09-15T07:57:39.099Z,97842.56
2022-09-15T07:59:41.398Z,97849.91
2022-09-15T08:01:43.198Z,97844.53
2022-09-15T08:03:46.203Z,97841.19
2022-09-15T08:05:47.934Z,97848.22
2022-09-15T08:07:50.327Z,97848.22
2022-09-15T08:09:52.002Z,97848.38
2022-09-15T08:11:53.695Z,97844.03
2022-09-15T08:13:55.371Z,97842.03
2022-09-15T08:15:57.159Z,97850.22
2022-09-15T08:17:59.321Z,97847.41
2022-09-15T08:20:01.211Z,97856.41
2022-09-15T08:22:02.928Z,97856.94
2022-09-15T08:24:04.752Z,97853.91
2022-09-15T08:26:10.639Z,97853.91
2022-09-15T08:28:14.852Z,97851.34
2022-09-15T08:30:16.588Z,97853.19
2022-09-15T08:32:18.347Z,97847.84
2022-09-15T08:34:19.988Z,97854.03
2022-09-15T08:36:21.942Z,97850.22
2022-09-15T08:38:23.602Z,97855.25
2022-09-15T08:40:32.678Z,97846.84
2022-09-15T08:42:34.678Z,97856.16
2022-09-15T08:44:59.815Z,97858.25
2022-09-15T08:47:18.011Z,97855.88
2022-09-15T08:49:51.873Z,97856.84
2022-09-15T08:51:54.484Z,97856.03
2022-09-15T08:54:01.568Z,97857.84
2022-09-15T08:56:08.235Z,97856.03
2022-09-15T08:58:19.424Z,97862.06
2022-09-15T09:00:21.265Z,97867.72
2022-09-15T09:02:33.642Z,97866.84
2022-09-15T09:04:43.945Z,97875.91
2022-09-15T09:07:07.098Z,97873.34
2022-09-15T09:09:20.990Z,97867.03
2022-09-15T09:11:38.620Z,97873.06
2022-09-15T09:14:04.039Z,97867.88
2022-09-15T09:16:06.233Z,97874.06
2022-09-15T09:18:49.208Z,97868.00
2022-09-15T09:21:22.777Z,97874.38
2022-09-15T09:23:26.508Z,97877.41
2022-09-15T09:25:28.656Z,97876.91
2022-09-15T09:27:33.021Z,97882.38
2022-09-15T09:29:41.128Z,97884.63
2022-09-15T09:31:43.298Z,97879.25
2022-09-15T09:34:14.821Z,97886.59
2022-09-15T09:36:16.587Z,97884.94
2022-09-15T09:38:23.406Z,97879.56
2022-09-15T09:40:25.108Z,97887.44
2022-09-15T09:42:30.201Z,97885.22
2022-09-15T09:44:32.218Z,97894.22
2022-09-15T09:46:34.163Z,97887.19
2022-09-15T09:48:36.388Z,97892.41
2022-09-15T09:50:39.722Z,97890.88
2022-09-15T09:52:41.522Z,97891.38
2022-09-15T09:54:43.614Z,97893.91
2022-09-15T09:56:46.226Z,97900.09
2022-09-15T09:58:48.515Z,97893.91
2022-09-15T10:00:51.136Z,97897.75
2022-09-15T10:02:52.846Z,97900.56
2022-09-15T10:05:04.403Z,97895.38
2022-09-15T10:07:06.753Z,97902.25
2022-09-15T10:09:13.433Z,97899.59
2022-09-15T10:11:15.112Z,97897.59
2022-09-15T10:13:16.780Z,97899.59
2022-09-15T10:15:28.799Z,97895.91
2022-09-15T10:17:36.190Z,97898.19
2022-09-15T10:19:45.242Z,97901.56
2022-09-15T10:21:47.558Z,97901.56
2022-09-15T10:23:49.210Z,97903.22
2022-09-15T10:25:59.712Z,97906.22
2022-09-15T10:28:13.713Z,97902.84
2022-09-15T10:30:15.347Z,97913.41
2022-09-15T10:32:24.948Z,97918.75
2022-09-15T10:34:30.778Z,97912.56
2022-09-15T10:36:32.445Z,97905.78
2022-09-15T10:38:53.839Z,97916.78
2022-09-15T10:41:14.046Z,97919.59
2022-09-15T10:43:25.203Z,97916.22
2022-09-15T10:45:34.583Z,97915.25
2022-09-15T10:47:50.332Z,97914.25
2022-09-15T10:50:16.304Z,97914.94
2022-09-15T10:52:40.599Z,97917.91
2022-09-15T10:54:59.763Z,97927.75
2022-09-15T10:57:11.537Z,97915.94
2022-09-15T10:59:28.228Z,97921.56
2022-09-15T11:01:29.916Z,97926.91
2022-09-15T11:03:39.904Z,97922.56
2022-09-15T11:05:49.432Z,97927.94
2022-09-15T11:08:15.078Z,97932.28
2022-09-15T11:10:29.923Z,97932.28
2022-09-15T11:12:38.141Z,97938.63
2022-09-15T11:15:03.895Z,97938.63
2022-09-15T11:17:16.505Z,97941.28
2022-09-15T11:19:20.912Z,97940.47
2022-09-15T11:21:22.510Z,97936.22
2022-09-15T11:23:38.192Z,97937.38
2022-09-15T11:25:45.402Z,97944.25
2022-09-15T11:27:54.494Z,97946.34
2022-09-15T11:30:23.073Z,97947.63
2022-09-15T11:32:26.662Z,97954.09
2022-09-15T11:34:35.791Z,97951.59
2022-09-15T11:36:51.402Z,97955.25
2022-09-15T11:39:00.108Z,97956.25
2022-09-15T11:41:20.414Z,97962.13
2022-09-15T11:43:24.903Z,97957.03
2022-09-15T11:45:27.432Z,97950.59
2022-09-15T11:47:38.755Z,97956.50
2022-09-15T11:49:57.276Z,97958.19
2022-09-15T11:52:36.063Z,97951.75
2022-09-15T11:54:43.180Z,97958.75
2022-09-15T11:56:45.391Z,97957.94
2022-09-15T11:59:15.130Z,97953.59
2022-09-15T12:01:19.636Z,97957.09
2022-09-15T12:03:49.357Z,97953.41
2022-09-15T12:06:02.634Z,97959.63
2022-09-15T12:08:15.310Z,97953.41
2022-09-15T12:10:29.594Z,97939.06
2022-09-15T12:12:31.496Z,97945.38
2022-09-15T12:14:36.351Z,97944.41
2022-09-15T12:16:38.053Z,97948.50
2022-09-15T12:18:47.593Z,97948.63
2022-09-15T12:20:53.841Z,97949.78
2022-09-15T12:23:04.557Z,97948.06
2022-09-15T12:25:15.212Z,97948.06
2022-09-15T12:27:17.898Z,97950.91
2022-09-15T12:29:22.545Z,97946.53
2022-09-15T12:31:34.852Z,97950.91
2022-09-15T12:33:43.066Z,97945.25
2022-09-15T12:35:44.787Z,97950.47
2022-09-15T12:37:47.402Z,97948.75
2022-09-15T12:39:49.272Z,97946.91
2022-09-15T12:41:53.468Z,97951.59
2022-09-15T12:43:56.275Z,97952.56
2022-09-15T12:45:59.773Z,97954.94
2022-09-15T12:48:02.647Z,97948.63
2022-09-15T12:50:25.704Z,97955.25
2022-09-15T12:52:27.851Z,97946.09
2022-09-15T12:54:30.862Z,97948.06
2022-09-15T12:56:32.959Z,97952.28
2022-09-15T12:58:47.445Z,97949.91
2022-09-15T13:01:16.636Z,97948.94
2022-09-15T13:03:49.237Z,97953.28
2022-09-15T13:05:52.336Z,97945.25
2022-09-15T13:07:55.835Z,97948.94
2022-09-15T13:10:15.362Z,97952.28
2022-09-15T13:12:17.509Z,97952.44
2022-09-15T13:14:33.312Z,97946.41
2022-09-15T13:16:56.214Z,97956.50
2022-09-15T13:19:25.272Z,97952.00
2022-09-15T13:21:27.015Z,97957.34
2022-09-15T13:23:28.994Z,97966.06
2022-09-15T13:25:30.754Z,97959.00
2022-09-15T13:27:42.215Z,97957.03
2022-09-15T13:29:50.944Z,97968.88
2022-09-15T13:32:24.928Z,97971.41
2022-09-15T13:39:46.267Z,97967.47
2022-09-15T13:42:14.389Z,97978.56
2022-09-15T13:44:50.407Z,97967.03
2022-09-15T13:47:10.637Z,97973.31
2022-09-15T13:49:30.711Z,97974.69
2022-09-15T13:51:33.061Z,97973.97
2022-09-15T13:53:48.771Z,97969.34
2022-09-15T13:55:50.812Z,97972.00
2022-09-15T14:00:26.649Z,97977.19
2022-09-15T14:02:29.361Z,97973.97
2022-09-15T14:04:31.722Z,97966.94
2022-09-15T14:06:41.889Z,97964.09
2022-09-15T14:08:45.989Z,97970.16
2022-09-15T14:10:54.470Z,97977.69
2022-09-15T14:13:01.471Z,97975.34
2022-09-15T14:15:04.370Z,97976.06
2022-09-15T14:17:06.203Z,97978.03
2022-09-15T14:19:27.095Z,97976.00
2022-09-15T14:21:32.610Z,97981.22
2022-09-15T14:23:38.057Z,97982.13
2022-09-15T14:25:40.888Z,97989.63
2022-09-15T14:27:48.466Z,97985.78
2022-09-15T14:29:51.461Z,97992.44
2022-09-15T14:31:53.541Z,97987.22
2022-09-15T14:33:56.018Z,97985.75
2022-09-15T14:35:57.814Z,97982.06
2022-09-15T14:37:59.803Z,97983.06
2022-09-15T14:40:02.705Z,97977.69
2022-09-15T14:42:23.022Z,97991.66
2022-09-15T14:47:17.901Z,97982.56
2022-09-15T14:49:19.650Z,97985.59
2022-09-15T14:51:25.511Z,97978.69
2022-09-15T14:53:27.575Z,97976.84
2022-09-15T14:55:55.478Z,97988.13
2022-09-15T14:58:01.807Z,97984.06
2022-09-15T15:00:06.980Z,97981.34
2022-09-15T15:02:19.006Z,97991.78
2022-09-15T15:04:23.596Z,97989.44
2022-09-15T15:06:35.426Z,97987.41
2022-09-15T15:08:43.293Z,97987.38
2022-09-15T15:10:45.949Z,97986.22
2022-09-15T15:12:53.185Z,97990.81
2022-09-15T15:14:55.504Z,97994.59
2022-09-15T15:16:59.783Z,97999.06
2022-09-15T15:19:01.820Z,97992.00
2022-09-15T15:21:03.610Z,97986.78
2022-09-15T15:23:25.657Z,97991.09
2022-09-15T15:25:29.247Z,97992.88
2022-09-15T15:27:34.034Z,97992.53
2022-09-15T15:29:38.614Z,97992.78
2022-09-15T15:31:40.460Z,97990.06
2022-09-15T15:33:58.313Z,97991.72
2022-09-15T15:36:05.660Z,97989.50
2022-09-15T15:38:13.012Z,97998.91
2022-09-15T15:40:18.730Z,97996.84
2022-09-15T15:42:20.751Z,98009.22
2022-09-15T15:44:25.151Z,98000.81
2022-09-15T15:46:45.198Z,98002.00
2022-09-15T15:48:47.137Z,98004.81
2022-09-15T15:50:48.903Z,97995.09
2022-09-15T15:52:50.956Z,98001.94
2022-09-15T15:54:52.844Z,97997.50
2022-09-15T15:56:54.614Z,97996.66
2022-09-15T15:58:56.642Z,97997.41
2022-09-15T16:00:58.414Z,97992.47
2022-09-15T16:03:00.227Z,98000.72
2022-09-15T16:05:02.800Z,98005.94
2022-09-15T16:07:04.715Z,97996.50
2022-09-15T16:09:06.400Z,97989.28
2022-09-15T16:11:09.007Z,97990.13
2022-09-15T16:13:13.939Z,97998.38
2022-09-15T16:15:17.770Z,97992.50
2022-09-15T16:17:19.420Z,97990.28
2022-09-15T16:19:21.274Z,97985.06
2022-09-15T16:21:33.961Z,97977.00
2022-09-15T16:23:36.044Z,97981.22
2022-09-15T16:26:07.563Z,97988.59
2022-09-15T16:28:09.450Z,97985.75
2022-09-15T16:30:11.505Z,97985.44
2022-09-15T16:32:18.836Z,97987.91
2022-09-15T16:34:20.772Z,97977.69
2022-09-15T16:36:22.695Z,97979.69
2022-09-15T16:38:25.211Z,97976.50
2022-09-15T16:40:27.320Z,97984.41
2022-09-15T16:42:29.039Z,97985.06
2022-09-15T16:44:30.946Z,97983.41
2022-09-15T16:46:32.816Z,97988.44
2022-09-15T16:48:34.671Z,97983.69
2022-09-15T16:50:39.881Z,97991.13
2022-09-15T16:52:44.488Z,97988.09
2022-09-15T16:54:46.225Z,97993.97
2022-09-15T16:56:48.016Z,97992.78
2022-09-15T16:58:49.717Z,97984.44
2022-09-15T17:00:51.806Z,97981.38
2022-09-15T17:02:53.576Z,97989.09
2022-09-15T17:04:55.755Z,97994.88
2022-09-15T17:06:57.846Z,97992.28
2022-09-15T17:08:59.997Z,97995.28
2022-09-15T17:11:02.782Z,97999.00
2022-09-15T17:13:04.757Z,98001.56
2022-09-15T17:15:19.714Z,97994.50
2022-09-15T17:17:25.063Z,98004.91
2022-09-15T17:19:26.739Z,98005.75
2022-09-15T17:21:28.459Z,98001.38
2022-09-15T17:23:38.291Z,98003.38
2022-09-15T17:25:41.890Z,98004.56
2022-09-15T17:27:43.692Z,98012.00
2022-09-15T17:29:45.406Z,98013.81
2022-09-15T17:31:47.385Z,98005.22
2022-09-15T17:33:50.035Z,98008.09
2022-09-15T17:35:51.911Z,98009.91
2022-09-15T17:37:54.268Z,98006.75
2022-09-15T17:39:58.960Z,98004.72
2022-09-15T17:44:02.664Z,98002.88
2022-09-15T17:46:04.459Z,98014.28
2022-09-15T17:48:06.514Z,98016.84
2022-09-15T17:50:08.903Z,98009.72
2022-09-15T17:52:11.101Z,97998.94
2022-09-15T17:54:12.923Z,98005.22
2022-09-15T17:56:14.818Z,98012.22
2022-09-15T17:58:16.652Z,97998.84
2022-09-15T18:00:18.784Z,97995.91
2022-09-15T18:02:20.948Z,98006.78
2022-09-15T18:04:22.763Z,98004.47
2022-09-15T18:06:24.765Z,97999.28
2022-09-15T18:08:27.051Z,97999.19
2022-09-15T18:10:29.224Z,98002.00
2022-09-15T18:12:31.046Z,97993.75
2022-09-15T18:14:32.947Z,97983.84
2022-09-15T18:16:34.695Z,97988.56
2022-09-15T18:18:36.559Z,97993.06
2022-09-15T18:20:40.001Z,97992.22
2022-09-15T18:22:41.918Z,97995.38
2022-09-15T18:24:43.778Z,97991.38
2022-09-15T18:26:45.680Z,97986.34
2022-09-15T18:28:47.399Z,97988.09
2022-09-15T18:30:49.831Z,97992.84
2022-09-15T18:32:51.769Z,97990.94
2022-09-15T18:34:53.529Z,97993.84
2022-09-15T18:36:55.259Z,97992.50
2022-09-15T18:38:57.284Z,97996.53
2022-09-15T18:40:59.052Z,97991.81
2022-09-15T18:43:00.812Z,97993.09
2022-09-15T18:45:02.641Z,97997.94
2022-09-15T18:47:04.626Z,97995.53
2022-09-15T18:49:06.347Z,97994.03
2022-09-15T18:51:08.995Z,97982.63
2022-09-15T18:53:10.841Z,97991.66
2022-09-15T18:55:17.486Z,97993.59
2022-09-15T18:57:19.668Z,97993.75
2022-09-15T18:59:21.402Z,97989.09
2022-09-15T19:01:23.398Z,97989.53
2022-09-15T19:03:28.101Z,97994.06
2022-09-15T19:05:31.807Z,97987.03
2022-09-15T19:07:33.860Z,97992.53
2022-09-15T19:09:35.814Z,97988.84
2022-09-15T19:11:37.629Z,97988.19
2022-09-15T19:13:39.330Z,97984.81
2022-09-15T19:15:41.233Z,97986.81
2022-09-15T19:17:43.218Z,97986.81
2022-09-15T19:19:45.012Z,97986.81
2022-09-15T19:21:46.777Z,97984.81
2022-09-15T19:23:49.006Z,97984.81
2022-09-15T19:25:50.741Z,97994.66
2022-09-15T19:27:52.499Z,97991.47
2022-09-15T19:29:54.355Z,97987.78
2022-09-15T19:31:56.196Z,97982.59
2022-09-15T19:33:57.948Z,97988.78
2022-09-15T19:36:17.274Z,97987.09
2022-09-15T19:38:24.812Z,97991.47
2022-09-15T19:40:26.919Z,97985.09
2022-09-15T19:42:28.809Z,97979.75
2022-09-15T19:44:30.688Z,97984.81
2022-09-15T19:46:32.593Z,97980.63
2022-09-15T19:48:38.627Z,97980.75
2022-09-15T19:50:43.122Z,97973.25
2022-09-15T19:52:44.875Z,97976.94
2022-09-15T19:54:46.594Z,97974.13
2022-09-15T19:56:48.268Z,97972.97
2022-09-15T19:58:50.015Z,97970.75
2022-09-15T20:00:55.364Z,97974.41
2022-09-15T20:02:57.136Z,97976.94
2022-09-15T20:04:58.902Z,97975.41
2022-09-15T20:07:00.568Z,97980.06
2022-09-15T20:09:02.358Z,97971.03
2022-09-15T20:11:05.298Z,97973.69
2022-09-15T20:13:07.074Z,97974.72
2022-09-15T20:15:09.279Z,97972.72
2022-09-15T20:17:11.176Z,97978.59
2022-09-15T20:19:12.938Z,97980.63
2022-09-15T20:21:26.857Z,97987.50
2022-09-15T20:23:37.500Z,97979.28
2022-09-15T20:25:39.180Z,97979.75
2022-09-15T20:27:40.866Z,97978.06
2022-09-15T20:29:42.586Z,97981.13
2022-09-15T20:31:44.273Z,97981.44
2022-09-15T20:34:14.090Z,97983.56
2022-09-15T20:36:23.517Z,97975.53
2022-09-15T20:38:25.331Z,97979.06
2022-09-15T20:40:27.044Z,97972.16
2022-09-15T20:42:28.807Z,97971.03
2022-09-15T20:44:30.548Z,97981.72
2022-09-15T20:46:32.286Z,97972.03
2022-09-15T20:48:34.918Z,97984.66
2022-09-15T20:50:36.698Z,97972.97
2022-09-15T20:52:38.728Z,97972.66
2022-09-15T20:54:40.433Z,97971.50
2022-09-15T20:56:42.097Z,97969.81
2022-09-15T20:58:43.786Z,97966.13
2022-09-15T21:00:45.552Z,97960.47
2022-09-15T21:02:51.537Z,97958.81
2022-09-15T21:04:53.290Z,97962.47
2022-09-15T21:06:54.940Z,97967.84
2022-09-15T21:08:57.183Z,97963.78
2022-09-15T21:10:58.844Z,97966.47
2022-09-15T21:13:00.561Z,97964.47
2022-09-15T21:15:02.239Z,97961.09
2022-09-15T21:17:04.010Z,97963.91
2022-09-15T21:19:05.741Z,97962.78
2022-09-15T21:21:08.247Z,97961.25
2022-09-15T21:23:10.083Z,97961.09
2022-09-15T21:25:11.786Z,97956.91
2022-09-15T21:27:13.473Z,97952.97
2022-09-15T21:29:15.336Z,97960.88
2022-09-15T21:31:21.477Z,97958.50
2022-09-15T21:33:23.226Z,97958.19
2022-09-15T21:35:24.886Z,97954.69
2022-09-15T21:37:26.585Z,97952.69
2022-09-15T21:39:28.261Z,97952.38
2022-09-15T21:41:30.165Z,97944.03
2022-09-15T21:43:32.493Z,97954.03
2022-09-15T21:45:34.229Z,97952.69
2022-09-15T21:47:35.923Z,97949.16
2022-09-15T21:49:37.581Z,97950.84
2022-09-15T21:51:39.312Z,97942.69
2022-09-15T21:53:41.399Z,97952.38
2022-09-15T21:55:43.129Z,97946.00
2022-09-15T21:57:44.809Z,97953.38
2022-09-15T21:59:46.490Z,97938.84
2022-09-15T22:01:48.198Z,97949.00
2022-09-15T22:03:54.743Z,97944.50
2022-09-15T22:05:56.506Z,97940.13
2022-09-15T22:08:02.764Z,97944.66
2022-09-15T22:10:06.804Z,97947.94
2022-09-15T22:12:08.558Z,97939.06
2022-09-15T22:14:10.342Z,97942.59
2022-09-15T22:16:19.546Z,97934.56
2022-09-15T22:18:21.284Z,97933.84
2022-09-15T22:20:22.985Z,97935.84
2022-09-15T22:22:24.702Z,97928.66
2022-09-15T22:24:26.391Z,97925.97
2022-09-15T22:26:29.530Z,97932.19
2022-09-15T22:28:31.416Z,97931.31
2022-09-15T22:30:33.085Z,97927.81
2022-09-15T22:32:34.886Z,97925.81
2022-09-15T22:34:36.593Z,97922.47
2022-09-15T22:36:38.342Z,97921.63
2022-09-15T22:38:40.163Z,97930.50
2022-09-15T22:40:41.896Z,97918.13
2022-09-15T22:42:43.679Z,97922.63
2022-09-15T22:44:45.497Z,97929.97
2022-09-15T22:46:47.299Z,97922.09
2022-09-15T22:48:49.079Z,97931.13
2022-09-15T22:50:50.789Z,97929.78
2022-09-15T22:52:52.485Z,97931.97
2022-09-15T22:54:54.222Z,97923.09
2022-09-15T22:56:56.003Z,97929.78
2022-09-15T22:58:57.683Z,97936.16
2022-09-15T23:01:06.759Z,97929.28
2022-09-15T23:03:08.974Z,97927.44
2022-09-15T23:05:10.799Z,97929.59
2022-09-15T23:07:12.515Z,97929.13
2022-09-15T23:09:14.229Z,97928.28
2022-09-15T23:11:15.920Z,97935.47
2022-09-15T23:13:17.903Z,97936.75
2022-09-15T23:15:19.689Z,97931.41
2022-09-15T23:17:21.441Z,97930.56
2022-09-15T23:19:23.182Z,97929.28
2022-09-15T23:21:25.065Z,97922.41
2022-09-15T23:23:27.041Z,97925.91
2022-09-15T23:25:28.696Z,97924.91
2022-09-15T23:27:30.523Z,97922.09
2022-09-15T23:29:32.296Z,97922.53
2022-09-15T23:31:33.969Z,97917.03
2022-09-15T23:33:35.769Z,97921.38
2022-09-15T23:35:37.602Z,97917.75
2022-09-15T23:37:39.319Z,97915.91
2022-09-15T23:39:41.016Z,97913.06
2022-09-15T23:41:42.662Z,97912.38
2022-09-15T23:43:44.471Z,97909.84
2022-09-15T23:45:46.162Z,97913.34
2022-09-15T23:47:47.829Z,97907.03
2022-09-15T23:49:49.492Z,97901.50
2022-09-15T23:51:51.143Z,97905.19
2022-09-15T23:53:52.912Z,97898.00
2022-09-15T23:55:54.633Z,97897.47
2022-09-15T23:57:56.353Z,97899.97
2022-09-15T23:59:58.102Z,97905.34
